Wheeler, Arkansas
Current Conditions -  °F | °C
As of 12:53 PM on Friday 24 Oct 2014 (Local Time) from KFYV Reporting Station
Clear Clear  
Wind Chill: 72°   Ceiling: Unl
Heat Index: 72°   Visibility: 10mi
Dew Point: 59°   Wind: 8mph
Humidity: 64%   Direction: 200°SSW
Pressure: 30.13"   Gusts: NA
Location:  36.0926°N, 94.221°W
Report Text: KFYV 241753Z 20007KT 10SM CLR 22/15 A3013 RMK AO2 SLP197 T02220150 10222 20078 58012
Loading
Personal Weather Stations






























Interactive Weather Map
Tropical Storm Tracking
New forecast layout! Learn more

10-Day Weather Forecast

Advertisements
Track Severe Weather on mobile